sensor_id;sensor_type;location;lat;lon;timestamp;temperature;humidity
60027;DHT22;45891;53.006;6.512;2023-05-27T00:00:44;8.00;99.90
60027;DHT22;45891;53.006;6.512;2023-05-27T00:03:11;7.90;99.90
60027;DHT22;45891;53.006;6.512;2023-05-27T00:05:37;7.90;99.90
60027;DHT22;45891;53.006;6.512;2023-05-27T00:08:06;7.90;99.90
60027;DHT22;45891;53.006;6.512;2023-05-27T00:10:35;7.90;99.90
60027;DHT22;45891;53.006;6.512;2023-05-27T00:13:01;7.80;99.90
60027;DHT22;45891;53.006;6.512;2023-05-27T00:15:27;7.80;99.90
60027;DHT22;45891;53.006;6.512;2023-05-27T00:17:53;7.70;99.90
60027;DHT22;45891;53.006;6.512;2023-05-27T00:20:22;7.70;99.90
60027;DHT22;45891;53.006;6.512;2023-05-27T00:22:49;7.60;99.90
60027;DHT22;45891;53.006;6.512;2023-05-27T00:25:16;7.60;99.90
60027;DHT22;45891;53.006;6.512;2023-05-27T00:27:47;7.50;99.90
60027;DHT22;45891;53.006;6.512;2023-05-27T00:30:13;7.50;99.90
60027;DHT22;45891;53.006;6.512;2023-05-27T00:32:39;7.50;99.90
60027;DHT22;45891;53.006;6.512;2023-05-27T00:35:06;7.40;99.90
60027;DHT22;45891;53.006;6.512;2023-05-27T00:37:32;7.40;99.90
60027;DHT22;45891;53.006;6.512;2023-05-27T00:39:58;7.40;99.90
60027;DHT22;45891;53.006;6.512;2023-05-27T00:42:24;7.30;99.90
60027;DHT22;45891;53.006;6.512;2023-05-27T00:44:50;7.30;99.90
60027;DHT22;45891;53.006;6.512;2023-05-27T00:47:17;7.30;99.90
60027;DHT22;45891;53.006;6.512;2023-05-27T00:49:44;7.20;99.90
60027;DHT22;45891;53.006;6.512;2023-05-27T00:52:11;7.20;99.90
60027;DHT22;45891;53.006;6.512;2023-05-27T00:54:42;7.20;99.90
60027;DHT22;45891;53.006;6.512;2023-05-27T00:57:08;7.20;99.90
60027;DHT22;45891;53.006;6.512;2023-05-27T00:59:34;7.10;99.90
60027;DHT22;45891;53.006;6.512;2023-05-27T01:02:00;7.10;99.90
60027;DHT22;45891;53.006;6.512;2023-05-27T01:04:26;7.10;99.90
60027;DHT22;45891;53.006;6.512;2023-05-27T01:07:07;7.10;99.90
60027;DHT22;45891;53.006;6.512;2023-05-27T01:10:23;7.00;99.90
60027;DHT22;45891;53.006;6.512;2023-05-27T01:12:42;7.00;99.90
60027;DHT22;45891;53.006;6.512;2023-05-27T01:15:11;6.90;99.90
60027;DHT22;45891;53.006;6.512;2023-05-27T01:17:38;6.90;99.90
60027;DHT22;45891;53.006;6.512;2023-05-27T01:20:10;6.90;99.90
60027;DHT22;45891;53.006;6.512;2023-05-27T01:22:36;6.90;99.90
60027;DHT22;45891;53.006;6.512;2023-05-27T01:25:03;6.90;99.90
60027;DHT22;45891;53.006;6.512;2023-05-27T01:27:29;6.90;99.90
60027;DHT22;45891;53.006;6.512;2023-05-27T01:29:56;6.80;99.90
60027;DHT22;45891;53.006;6.512;2023-05-27T01:35:08;6.80;99.90
60027;DHT22;45891;53.006;6.512;2023-05-27T01:37:37;6.80;99.90
60027;DHT22;45891;53.006;6.512;2023-05-27T01:40:08;6.80;99.90
60027;DHT22;45891;53.006;6.512;2023-05-27T01:42:35;6.70;99.90
60027;DHT22;45891;53.006;6.512;2023-05-27T01:45:05;6.70;99.90
60027;DHT22;45891;53.006;6.512;2023-05-27T01:47:32;6.70;99.90
60027;DHT22;45891;53.006;6.512;2023-05-27T01:49:58;6.70;99.90
60027;DHT22;45891;53.006;6.512;2023-05-27T01:52:24;6.70;99.90
60027;DHT22;45891;53.006;6.512;2023-05-27T01:54:50;6.60;99.90
60027;DHT22;45891;53.006;6.512;2023-05-27T01:57:17;6.60;99.90
60027;DHT22;45891;53.006;6.512;2023-05-27T01:59:43;6.60;99.90
60027;DHT22;45891;53.006;6.512;2023-05-27T02:02:09;6.60;99.90
60027;DHT22;45891;53.006;6.512;2023-05-27T02:04:35;6.60;99.90
60027;DHT22;45891;53.006;6.512;2023-05-27T02:07:02;6.50;99.90
60027;DHT22;45891;53.006;6.512;2023-05-27T02:09:29;6.50;99.90
60027;DHT22;45891;53.006;6.512;2023-05-27T02:11:55;6.60;99.90
60027;DHT22;45891;53.006;6.512;2023-05-27T02:14:21;6.60;99.90
60027;DHT22;45891;53.006;6.512;2023-05-27T02:16:47;6.60;99.90
60027;DHT22;45891;53.006;6.512;2023-05-27T02:19:16;6.50;99.90
60027;DHT22;45891;53.006;6.512;2023-05-27T02:21:42;6.60;99.90
60027;DHT22;45891;53.006;6.512;2023-05-27T02:24:08;6.60;99.90
60027;DHT22;45891;53.006;6.512;2023-05-27T02:26:34;6.70;99.90
60027;DHT22;45891;53.006;6.512;2023-05-27T02:29:00;6.60;99.90
60027;DHT22;45891;53.006;6.512;2023-05-27T02:31:26;6.60;99.90
60027;DHT22;45891;53.006;6.512;2023-05-27T02:33:52;6.60;99.90
60027;DHT22;45891;53.006;6.512;2023-05-27T02:36:18;6.60;99.90
60027;DHT22;45891;53.006;6.512;2023-05-27T02:38:47;6.60;99.90
60027;DHT22;45891;53.006;6.512;2023-05-27T02:41:13;6.60;99.90
60027;DHT22;45891;53.006;6.512;2023-05-27T02:43:39;6.70;99.90
60027;DHT22;45891;53.006;6.512;2023-05-27T02:46:05;6.80;99.90
60027;DHT22;45891;53.006;6.512;2023-05-27T02:48:31;6.80;99.90
60027;DHT22;45891;53.006;6.512;2023-05-27T02:50:57;6.90;99.90
60027;DHT22;45891;53.006;6.512;2023-05-27T02:53:23;6.90;99.90
60027;DHT22;45891;53.006;6.512;2023-05-27T02:55:50;7.00;99.90
60027;DHT22;45891;53.006;6.512;2023-05-27T02:58:16;7.00;99.90
60027;DHT22;45891;53.006;6.512;2023-05-27T03:00:42;7.00;99.90
60027;DHT22;45891;53.006;6.512;2023-05-27T03:03:08;7.00;99.90
60027;DHT22;45891;53.006;6.512;2023-05-27T03:05:35;7.10;99.90
60027;DHT22;45891;53.006;6.512;2023-05-27T03:08:02;7.10;99.90
60027;DHT22;45891;53.006;6.512;2023-05-27T03:10:28;7.00;99.90
60027;DHT22;45891;53.006;6.512;2023-05-27T03:12:54;7.00;99.90
60027;DHT22;45891;53.006;6.512;2023-05-27T03:15:21;7.00;99.90
60027;DHT22;45891;53.006;6.512;2023-05-27T03:17:47;7.00;99.90
60027;DHT22;45891;53.006;6.512;2023-05-27T03:20:13;6.90;99.90
60027;DHT22;45891;53.006;6.512;2023-05-27T03:22:39;7.00;99.90
60027;DHT22;45891;53.006;6.512;2023-05-27T03:25:06;7.00;99.90
60027;DHT22;45891;53.006;6.512;2023-05-27T03:27:32;7.00;99.90
60027;DHT22;45891;53.006;6.512;2023-05-27T03:29:58;7.10;99.90
60027;DHT22;45891;53.006;6.512;2023-05-27T03:32:24;7.10;99.90
60027;DHT22;45891;53.006;6.512;2023-05-27T03:34:50;7.10;99.90
60027;DHT22;45891;53.006;6.512;2023-05-27T03:37:17;7.20;99.90
60027;DHT22;45891;53.006;6.512;2023-05-27T03:39:43;7.20;99.90
60027;DHT22;45891;53.006;6.512;2023-05-27T03:42:09;7.20;99.90
60027;DHT22;45891;53.006;6.512;2023-05-27T03:44:35;7.20;99.90
60027;DHT22;45891;53.006;6.512;2023-05-27T03:47:02;7.20;99.90
60027;DHT22;45891;53.006;6.512;2023-05-27T03:49:28;7.20;99.90
60027;DHT22;45891;53.006;6.512;2023-05-27T03:51:54;7.20;99.90
60027;DHT22;45891;53.006;6.512;2023-05-27T03:54:21;7.30;99.90
60027;DHT22;45891;53.006;6.512;2023-05-27T03:56:47;7.30;99.90
60027;DHT22;45891;53.006;6.512;2023-05-27T03:59:13;7.30;99.90
60027;DHT22;45891;53.006;6.512;2023-05-27T04:01:39;7.30;99.90
60027;DHT22;45891;53.006;6.512;2023-05-27T04:04:05;7.40;99.90
60027;DHT22;45891;53.006;6.512;2023-05-27T04:06:31;7.50;99.90
60027;DHT22;45891;53.006;6.512;2023-05-27T04:08:57;7.60;99.90
60027;DHT22;45891;53.006;6.512;2023-05-27T04:11:27;7.60;99.90
60027;DHT22;45891;53.006;6.512;2023-05-27T04:13:53;7.70;99.90
60027;DHT22;45891;53.006;6.512;2023-05-27T04:16:21;7.70;99.90
60027;DHT22;45891;53.006;6.512;2023-05-27T04:18:47;7.80;99.90
60027;DHT22;45891;53.006;6.512;2023-05-27T04:21:20;7.80;99.90
60027;DHT22;45891;53.006;6.512;2023-05-27T04:23:46;7.90;99.90
60027;DHT22;45891;53.006;6.512;2023-05-27T04:26:12;7.90;99.90
60027;DHT22;45891;53.006;6.512;2023-05-27T04:28:40;8.00;99.90
60027;DHT22;45891;53.006;6.512;2023-05-27T04:31:07;8.00;99.90
60027;DHT22;45891;53.006;6.512;2023-05-27T04:33:44;8.00;99.90
60027;DHT22;45891;53.006;6.512;2023-05-27T04:36:11;8.10;99.90
60027;DHT22;45891;53.006;6.512;2023-05-27T04:38:37;8.10;99.90
60027;DHT22;45891;53.006;6.512;2023-05-27T04:41:04;8.20;99.90
60027;DHT22;45891;53.006;6.512;2023-05-27T04:43:30;8.20;99.90
60027;DHT22;45891;53.006;6.512;2023-05-27T04:45:57;8.30;99.90
60027;DHT22;45891;53.006;6.512;2023-05-27T04:48:25;8.40;99.90
60027;DHT22;45891;53.006;6.512;2023-05-27T04:50:52;8.50;99.90
60027;DHT22;45891;53.006;6.512;2023-05-27T04:53:20;8.60;99.90
60027;DHT22;45891;53.006;6.512;2023-05-27T04:55:47;8.70;99.90
60027;DHT22;45891;53.006;6.512;2023-05-27T04:58:13;8.80;99.90
60027;DHT22;45891;53.006;6.512;2023-05-27T05:00:39;8.90;99.90
60027;DHT22;45891;53.006;6.512;2023-05-27T05:03:24;9.00;99.90
60027;DHT22;45891;53.006;6.512;2023-05-27T05:06:03;9.10;99.90
60027;DHT22;45891;53.006;6.512;2023-05-27T05:08:29;9.20;99.90
60027;DHT22;45891;53.006;6.512;2023-05-27T05:10:55;9.20;99.90
60027;DHT22;45891;53.006;6.512;2023-05-27T05:13:24;9.30;99.90
60027;DHT22;45891;53.006;6.512;2023-05-27T05:15:54;9.30;99.90
60027;DHT22;45891;53.006;6.512;2023-05-27T05:18:20;9.40;99.90
60027;DHT22;45891;53.006;6.512;2023-05-27T05:20:47;9.40;99.90
60027;DHT22;45891;53.006;6.512;2023-05-27T05:23:13;9.40;99.90
60027;DHT22;45891;53.006;6.512;2023-05-27T05:25:39;9.50;99.90
60027;DHT22;45891;53.006;6.512;2023-05-27T05:28:05;9.50;99.90
60027;DHT22;45891;53.006;6.512;2023-05-27T05:30:32;9.60;99.90
60027;DHT22;45891;53.006;6.512;2023-05-27T05:32:58;9.60;99.90
60027;DHT22;45891;53.006;6.512;2023-05-27T05:35:25;9.70;99.90
60027;DHT22;45891;53.006;6.512;2023-05-27T05:37:51;9.80;99.90
60027;DHT22;45891;53.006;6.512;2023-05-27T05:40:17;9.90;99.90
60027;DHT22;45891;53.006;6.512;2023-05-27T05:42:43;10.10;99.90
60027;DHT22;45891;53.006;6.512;2023-05-27T05:45:09;10.30;99.90
60027;DHT22;45891;53.006;6.512;2023-05-27T05:47:35;10.60;99.90
60027;DHT22;45891;53.006;6.512;2023-05-27T05:50:01;10.90;99.90
60027;DHT22;45891;53.006;6.512;2023-05-27T05:52:27;11.20;99.90
60027;DHT22;45891;53.006;6.512;2023-05-27T05:54:53;11.40;99.90
60027;DHT22;45891;53.006;6.512;2023-05-27T05:57:20;11.70;99.90
60027;DHT22;45891;53.006;6.512;2023-05-27T05:59:46;12.00;99.90
60027;DHT22;45891;53.006;6.512;2023-05-27T06:02:12;12.30;99.90
60027;DHT22;45891;53.006;6.512;2023-05-27T06:04:38;12.50;99.90
60027;DHT22;45891;53.006;6.512;2023-05-27T06:07:04;12.70;99.90
60027;DHT22;45891;53.006;6.512;2023-05-27T06:09:30;12.80;99.90
60027;DHT22;45891;53.006;6.512;2023-05-27T06:11:57;13.00;99.90
60027;DHT22;45891;53.006;6.512;2023-05-27T06:14:23;13.10;99.90
60027;DHT22;45891;53.006;6.512;2023-05-27T06:16:49;13.30;99.90
60027;DHT22;45891;53.006;6.512;2023-05-27T06:19:15;13.50;99.90
60027;DHT22;45891;53.006;6.512;2023-05-27T06:21:42;13.60;99.90
60027;DHT22;45891;53.006;6.512;2023-05-27T06:24:08;13.60;99.90
60027;DHT22;45891;53.006;6.512;2023-05-27T06:26:34;13.60;99.90
60027;DHT22;45891;53.006;6.512;2023-05-27T06:29:00;13.80;99.90
60027;DHT22;45891;53.006;6.512;2023-05-27T06:31:26;14.10;99.90
60027;DHT22;45891;53.006;6.512;2023-05-27T06:33:53;14.40;99.90
60027;DHT22;45891;53.006;6.512;2023-05-27T06:36:19;14.50;99.90
60027;DHT22;45891;53.006;6.512;2023-05-27T06:38:45;14.60;99.90
60027;DHT22;45891;53.006;6.512;2023-05-27T06:41:11;14.80;99.90
60027;DHT22;45891;53.006;6.512;2023-05-27T06:43:38;15.10;99.90
60027;DHT22;45891;53.006;6.512;2023-05-27T06:46:04;15.30;99.90
60027;DHT22;45891;53.006;6.512;2023-05-27T06:48:30;15.40;99.90
60027;DHT22;45891;53.006;6.512;2023-05-27T06:50:56;15.50;99.90
60027;DHT22;45891;53.006;6.512;2023-05-27T06:53:22;15.60;99.90
60027;DHT22;45891;53.006;6.512;2023-05-27T06:55:48;15.40;99.90
60027;DHT22;45891;53.006;6.512;2023-05-27T06:58:14;15.60;99.90
60027;DHT22;45891;53.006;6.512;2023-05-27T07:00:40;15.60;99.90
60027;DHT22;45891;53.006;6.512;2023-05-27T07:03:06;15.90;99.90
60027;DHT22;45891;53.006;6.512;2023-05-27T07:05:32;15.80;99.90
60027;DHT22;45891;53.006;6.512;2023-05-27T07:07:58;16.10;99.90
60027;DHT22;45891;53.006;6.512;2023-05-27T07:10:25;16.20;99.90
60027;DHT22;45891;53.006;6.512;2023-05-27T07:12:51;16.60;99.90
60027;DHT22;45891;53.006;6.512;2023-05-27T07:15:17;16.50;99.90
60027;DHT22;45891;53.006;6.512;2023-05-27T07:17:43;16.50;99.90
60027;DHT22;45891;53.006;6.512;2023-05-27T07:20:09;16.60;99.90
60027;DHT22;45891;53.006;6.512;2023-05-27T07:22:36;16.70;99.90
60027;DHT22;45891;53.006;6.512;2023-05-27T07:25:02;16.80;99.90
60027;DHT22;45891;53.006;6.512;2023-05-27T07:27:28;16.60;99.90
60027;DHT22;45891;53.006;6.512;2023-05-27T07:29:54;16.50;99.90
60027;DHT22;45891;53.006;6.512;2023-05-27T07:32:20;16.80;99.90
60027;DHT22;45891;53.006;6.512;2023-05-27T07:34:47;16.90;99.90
60027;DHT22;45891;53.006;6.512;2023-05-27T07:37:14;17.00;99.90
60027;DHT22;45891;53.006;6.512;2023-05-27T07:39:40;16.90;99.90
60027;DHT22;45891;53.006;6.512;2023-05-27T07:42:06;17.20;99.90
60027;DHT22;45891;53.006;6.512;2023-05-27T07:44:32;16.90;99.90
60027;DHT22;45891;53.006;6.512;2023-05-27T07:46:58;17.10;99.90
60027;DHT22;45891;53.006;6.512;2023-05-27T07:49:26;17.10;99.90
60027;DHT22;45891;53.006;6.512;2023-05-27T07:51:52;17.00;99.70
60027;DHT22;45891;53.006;6.512;2023-05-27T07:54:18;17.30;99.90
60027;DHT22;45891;53.006;6.512;2023-05-27T07:56:44;17.80;99.80
60027;DHT22;45891;53.006;6.512;2023-05-27T07:59:10;17.40;99.00
60027;DHT22;45891;53.006;6.512;2023-05-27T08:01:39;17.80;99.40
60027;DHT22;45891;53.006;6.512;2023-05-27T08:04:06;18.30;99.30
60027;DHT22;45891;53.006;6.512;2023-05-27T08:06:32;18.30;98.80
60027;DHT22;45891;53.006;6.512;2023-05-27T08:08:58;18.10;98.40
60027;DHT22;45891;53.006;6.512;2023-05-27T08:11:24;18.50;98.80
60027;DHT22;45891;53.006;6.512;2023-05-27T08:13:51;18.80;98.50
60027;DHT22;45891;53.006;6.512;2023-05-27T08:16:17;18.70;98.10
60027;DHT22;45891;53.006;6.512;2023-05-27T08:18:43;18.90;97.70
60027;DHT22;45891;53.006;6.512;2023-05-27T08:21:09;19.30;98.00
60027;DHT22;45891;53.006;6.512;2023-05-27T08:23:35;19.90;97.80
60027;DHT22;45891;53.006;6.512;2023-05-27T08:26:02;20.20;97.50
60027;DHT22;45891;53.006;6.512;2023-05-27T08:28:28;20.50;96.90
60027;DHT22;45891;53.006;6.512;2023-05-27T08:30:54;20.70;96.40
60027;DHT22;45891;53.006;6.512;2023-05-27T08:33:20;21.00;96.30
60027;DHT22;45891;53.006;6.512;2023-05-27T08:35:47;21.50;96.30
60027;DHT22;45891;53.006;6.512;2023-05-27T08:38:13;21.90;95.60
60027;DHT22;45891;53.006;6.512;2023-05-27T08:40:41;22.20;95.20
60027;DHT22;45891;53.006;6.512;2023-05-27T08:43:07;22.30;94.00
60027;DHT22;45891;53.006;6.512;2023-05-27T08:45:34;22.60;94.30
60027;DHT22;45891;53.006;6.512;2023-05-27T08:48:01;22.70;94.20
60027;DHT22;45891;53.006;6.512;2023-05-27T08:50:28;23.00;93.80
60027;DHT22;45891;53.006;6.512;2023-05-27T08:52:54;22.80;93.90
60027;DHT22;45891;53.006;6.512;2023-05-27T08:55:21;22.40;93.80
60027;DHT22;45891;53.006;6.512;2023-05-27T08:57:59;22.70;93.80
60027;DHT22;45891;53.006;6.512;2023-05-27T09:00:27;23.30;93.40
60027;DHT22;45891;53.006;6.512;2023-05-27T09:02:53;23.50;93.30
60027;DHT22;45891;53.006;6.512;2023-05-27T09:05:26;23.40;93.00
60027;DHT22;45891;53.006;6.512;2023-05-27T09:07:52;23.40;92.60
60027;DHT22;45891;53.006;6.512;2023-05-27T09:10:18;23.80;92.70
60027;DHT22;45891;53.006;6.512;2023-05-27T09:12:45;23.80;91.70
60027;DHT22;45891;53.006;6.512;2023-05-27T09:15:12;24.30;92.10
60027;DHT22;45891;53.006;6.512;2023-05-27T09:17:42;24.40;91.00
60027;DHT22;45891;53.006;6.512;2023-05-27T09:20:09;24.70;91.70
60027;DHT22;45891;53.006;6.512;2023-05-27T09:22:37;25.30;91.00
60027;DHT22;45891;53.006;6.512;2023-05-27T09:25:03;25.30;91.00
60027;DHT22;45891;53.006;6.512;2023-05-27T09:27:31;25.50;90.70
60027;DHT22;45891;53.006;6.512;2023-05-27T09:29:58;25.80;89.40
60027;DHT22;45891;53.006;6.512;2023-05-27T09:32:33;25.20;89.80
60027;DHT22;45891;53.006;6.512;2023-05-27T09:35:01;25.00;89.50
60027;DHT22;45891;53.006;6.512;2023-05-27T09:37:30;25.30;89.20
60027;DHT22;45891;53.006;6.512;2023-05-27T09:39:58;26.00;89.70
60027;DHT22;45891;53.006;6.512;2023-05-27T09:42:25;26.60;86.00
60027;DHT22;45891;53.006;6.512;2023-05-27T09:44:54;26.90;88.30
60027;DHT22;45891;53.006;6.512;2023-05-27T09:47:21;26.80;87.30
60027;DHT22;45891;53.006;6.512;2023-05-27T09:49:49;27.20;86.10
60027;DHT22;45891;53.006;6.512;2023-05-27T09:52:18;27.40;85.60
60027;DHT22;45891;53.006;6.512;2023-05-27T09:54:47;27.50;83.40
60027;DHT22;45891;53.006;6.512;2023-05-27T09:57:14;27.70;84.90
60027;DHT22;45891;53.006;6.512;2023-05-27T09:59:42;27.70;84.20
60027;DHT22;45891;53.006;6.512;2023-05-27T10:02:11;27.40;83.50
60027;DHT22;45891;53.006;6.512;2023-05-27T10:04:39;27.50;82.40
60027;DHT22;45891;53.006;6.512;2023-05-27T10:07:05;27.70;83.10
60027;DHT22;45891;53.006;6.512;2023-05-27T10:09:32;28.20;82.80
60027;DHT22;45891;53.006;6.512;2023-05-27T10:11:58;28.80;82.90
60027;DHT22;45891;53.006;6.512;2023-05-27T10:14:25;28.90;81.10
60027;DHT22;45891;53.006;6.512;2023-05-27T10:16:52;28.50;80.00
60027;DHT22;45891;53.006;6.512;2023-05-27T10:19:21;28.50;79.60
60027;DHT22;45891;53.006;6.512;2023-05-27T10:21:48;28.30;77.10
60027;DHT22;45891;53.006;6.512;2023-05-27T10:24:14;27.60;79.20
60027;DHT22;45891;53.006;6.512;2023-05-27T10:26:43;27.50;78.30
60027;DHT22;45891;53.006;6.512;2023-05-27T10:29:13;27.00;79.00
60027;DHT22;45891;53.006;6.512;2023-05-27T10:31:52;26.90;77.20
60027;DHT22;45891;53.006;6.512;2023-05-27T10:34:18;26.20;78.30
60027;DHT22;45891;53.006;6.512;2023-05-27T10:36:45;26.20;79.00
60027;DHT22;45891;53.006;6.512;2023-05-27T10:39:13;26.40;78.10
60027;DHT22;45891;53.006;6.512;2023-05-27T10:41:53;26.20;77.70
60027;DHT22;45891;53.006;6.512;2023-05-27T10:44:31;26.30;78.30
60027;DHT22;45891;53.006;6.512;2023-05-27T10:47:00;26.80;80.20
60027;DHT22;45891;53.006;6.512;2023-05-27T10:49:34;27.60;79.20
60027;DHT22;45891;53.006;6.512;2023-05-27T10:52:09;27.30;76.90
60027;DHT22;45891;53.006;6.512;2023-05-27T10:54:43;27.50;77.60
60027;DHT22;45891;53.006;6.512;2023-05-27T10:57:09;27.60;77.70
60027;DHT22;45891;53.006;6.512;2023-05-27T10:59:52;27.30;77.00
60027;DHT22;45891;53.006;6.512;2023-05-27T11:02:20;27.70;76.90
60027;DHT22;45891;53.006;6.512;2023-05-27T11:04:48;27.60;76.10
60027;DHT22;45891;53.006;6.512;2023-05-27T11:07:18;27.60;76.00
60027;DHT22;45891;53.006;6.512;2023-05-27T11:09:53;27.50;77.60
60027;DHT22;45891;53.006;6.512;2023-05-27T11:12:22;27.80;75.80
60027;DHT22;45891;53.006;6.512;2023-05-27T11:14:50;27.50;75.00
60027;DHT22;45891;53.006;6.512;2023-05-27T11:17:18;26.80;75.10
60027;DHT22;45891;53.006;6.512;2023-05-27T11:19:44;27.30;76.90
60027;DHT22;45891;53.006;6.512;2023-05-27T11:22:13;28.00;77.60
60027;DHT22;45891;53.006;6.512;2023-05-27T11:24:40;28.30;75.90
60027;DHT22;45891;53.006;6.512;2023-05-27T11:27:11;28.40;76.10
60027;DHT22;45891;53.006;6.512;2023-05-27T11:29:38;28.60;74.20
60027;DHT22;45891;53.006;6.512;2023-05-27T11:32:08;28.40;74.20
60027;DHT22;45891;53.006;6.512;2023-05-27T11:34:35;28.30;73.50
60027;DHT22;45891;53.006;6.512;2023-05-27T11:37:03;27.70;74.20
60027;DHT22;45891;53.006;6.512;2023-05-27T11:39:30;27.70;74.60
60027;DHT22;45891;53.006;6.512;2023-05-27T11:41:56;27.70;73.50
60027;DHT22;45891;53.006;6.512;2023-05-27T11:44:23;27.70;74.50
60027;DHT22;45891;53.006;6.512;2023-05-27T11:46:51;28.50;75.80
60027;DHT22;45891;53.006;6.512;2023-05-27T11:49:19;29.40;74.80
60027;DHT22;45891;53.006;6.512;2023-05-27T11:51:47;30.00;73.60
60027;DHT22;45891;53.006;6.512;2023-05-27T11:54:27;29.70;73.20
60027;DHT22;45891;53.006;6.512;2023-05-27T11:56:55;29.60;73.40
60027;DHT22;45891;53.006;6.512;2023-05-27T11:59:23;29.40;72.50
60027;DHT22;45891;53.006;6.512;2023-05-27T12:01:50;29.40;72.50
60027;DHT22;45891;53.006;6.512;2023-05-27T12:04:17;29.60;73.10
60027;DHT22;45891;53.006;6.512;2023-05-27T12:06:44;29.30;72.00
60027;DHT22;45891;53.006;6.512;2023-05-27T12:09:11;29.20;72.70
60027;DHT22;45891;53.006;6.512;2023-05-27T12:11:38;29.70;73.00
60027;DHT22;45891;53.006;6.512;2023-05-27T12:14:05;29.80;73.30
60027;DHT22;45891;53.006;6.512;2023-05-27T12:16:31;30.10;71.70
60027;DHT22;45891;53.006;6.512;2023-05-27T12:18:58;29.60;70.80
60027;DHT22;45891;53.006;6.512;2023-05-27T12:21:24;29.70;72.00
60027;DHT22;45891;53.006;6.512;2023-05-27T12:23:50;29.60;72.00
60027;DHT22;45891;53.006;6.512;2023-05-27T12:26:17;29.80;72.60
60027;DHT22;45891;53.006;6.512;2023-05-27T12:28:44;29.80;72.20
60027;DHT22;45891;53.006;6.512;2023-05-27T12:31:10;29.80;72.50
60027;DHT22;45891;53.006;6.512;2023-05-27T12:33:36;29.90;69.70
60027;DHT22;45891;53.006;6.512;2023-05-27T12:36:03;29.20;70.60
60027;DHT22;45891;53.006;6.512;2023-05-27T12:38:31;29.20;72.20
60027;DHT22;45891;53.006;6.512;2023-05-27T12:40:57;29.90;71.30
60027;DHT22;45891;53.006;6.512;2023-05-27T12:43:24;29.80;70.30
60027;DHT22;45891;53.006;6.512;2023-05-27T12:45:50;29.80;70.00
60027;DHT22;45891;53.006;6.512;2023-05-27T12:48:16;29.80;69.40
60027;DHT22;45891;53.006;6.512;2023-05-27T12:50:46;28.80;69.40
60027;DHT22;45891;53.006;6.512;2023-05-27T12:53:13;28.50;69.70
60027;DHT22;45891;53.006;6.512;2023-05-27T12:55:39;28.00;69.70
60027;DHT22;45891;53.006;6.512;2023-05-27T12:58:05;28.00;70.00
60027;DHT22;45891;53.006;6.512;2023-05-27T13:00:31;28.20;70.30
60027;DHT22;45891;53.006;6.512;2023-05-27T13:02:59;28.50;70.60
60027;DHT22;45891;53.006;6.512;2023-05-27T13:05:25;28.30;69.80
60027;DHT22;45891;53.006;6.512;2023-05-27T13:07:59;28.50;71.20
60027;DHT22;45891;53.006;6.512;2023-05-27T13:10:26;29.10;71.80
60027;DHT22;45891;53.006;6.512;2023-05-27T13:12:53;29.30;69.10
60027;DHT22;45891;53.006;6.512;2023-05-27T13:15:20;28.70;68.10
60027;DHT22;45891;53.006;6.512;2023-05-27T13:17:48;28.80;70.00
60027;DHT22;45891;53.006;6.512;2023-05-27T13:20:15;28.90;69.20
60027;DHT22;45891;53.006;6.512;2023-05-27T13:22:43;29.40;70.30
60027;DHT22;45891;53.006;6.512;2023-05-27T13:25:09;29.90;69.90
60027;DHT22;45891;53.006;6.512;2023-05-27T13:27:37;30.30;70.90
60027;DHT22;45891;53.006;6.512;2023-05-27T13:30:04;30.50;69.40
60027;DHT22;45891;53.006;6.512;2023-05-27T13:32:31;30.10;68.80
60027;DHT22;45891;53.006;6.512;2023-05-27T13:34:57;29.80;68.10
60027;DHT22;45891;53.006;6.512;2023-05-27T13:37:23;29.40;67.60
60027;DHT22;45891;53.006;6.512;2023-05-27T13:39:49;29.70;69.60
60027;DHT22;45891;53.006;6.512;2023-05-27T13:42:15;30.10;67.50
60027;DHT22;45891;53.006;6.512;2023-05-27T13:44:41;29.40;68.50
60027;DHT22;45891;53.006;6.512;2023-05-27T13:47:08;29.70;68.80
60027;DHT22;45891;53.006;6.512;2023-05-27T13:49:34;30.00;69.50
60027;DHT22;45891;53.006;6.512;2023-05-27T13:52:01;29.50;66.50
60027;DHT22;45891;53.006;6.512;2023-05-27T13:54:28;29.60;67.10
60027;DHT22;45891;53.006;6.512;2023-05-27T13:56:54;28.70;65.70
60027;DHT22;45891;53.006;6.512;2023-05-27T13:59:20;28.70;68.10
60027;DHT22;45891;53.006;6.512;2023-05-27T14:01:46;29.30;69.10
60027;DHT22;45891;53.006;6.512;2023-05-27T14:04:12;30.00;70.00
60027;DHT22;45891;53.006;6.512;2023-05-27T14:06:39;30.50;69.10
60027;DHT22;45891;53.006;6.512;2023-05-27T14:09:05;30.70;70.00
60027;DHT22;45891;53.006;6.512;2023-05-27T14:11:31;30.50;69.20
60027;DHT22;45891;53.006;6.512;2023-05-27T14:13:57;30.20;69.00
60027;DHT22;45891;53.006;6.512;2023-05-27T14:16:23;30.30;69.00
60027;DHT22;45891;53.006;6.512;2023-05-27T14:18:49;30.50;67.60
60027;DHT22;45891;53.006;6.512;2023-05-27T14:21:16;30.60;68.20
60027;DHT22;45891;53.006;6.512;2023-05-27T14:23:43;29.70;66.80
60027;DHT22;45891;53.006;6.512;2023-05-27T14:26:10;29.40;66.50
60027;DHT22;45891;53.006;6.512;2023-05-27T14:28:36;28.80;65.80
60027;DHT22;45891;53.006;6.512;2023-05-27T14:31:02;28.60;66.80
60027;DHT22;45891;53.006;6.512;2023-05-27T14:33:28;28.70;67.60
60027;DHT22;45891;53.006;6.512;2023-05-27T14:35:55;28.70;68.90
60027;DHT22;45891;53.006;6.512;2023-05-27T14:38:21;29.00;68.60
60027;DHT22;45891;53.006;6.512;2023-05-27T14:40:47;29.60;69.30
60027;DHT22;45891;53.006;6.512;2023-05-27T14:43:15;30.40;68.80
60027;DHT22;45891;53.006;6.512;2023-05-27T14:45:41;30.50;68.70
60027;DHT22;45891;53.006;6.512;2023-05-27T14:48:08;29.70;66.60
60027;DHT22;45891;53.006;6.512;2023-05-27T14:50:34;29.40;66.90
60027;DHT22;45891;53.006;6.512;2023-05-27T14:53:00;29.40;67.20
60027;DHT22;45891;53.006;6.512;2023-05-27T14:55:26;29.20;68.10
60027;DHT22;45891;53.006;6.512;2023-05-27T14:57:52;29.10;69.30
60027;DHT22;45891;53.006;6.512;2023-05-27T15:00:18;29.30;68.40
60027;DHT22;45891;53.006;6.512;2023-05-27T15:02:45;29.40;68.40
60027;DHT22;45891;53.006;6.512;2023-05-27T15:05:11;29.90;69.50
60027;DHT22;45891;53.006;6.512;2023-05-27T15:07:37;30.60;70.10
60027;DHT22;45891;53.006;6.512;2023-05-27T15:10:05;29.90;67.40
60027;DHT22;45891;53.006;6.512;2023-05-27T15:12:42;29.70;68.00
60027;DHT22;45891;53.006;6.512;2023-05-27T15:15:13;29.50;68.10
60027;DHT22;45891;53.006;6.512;2023-05-27T15:17:42;29.00;67.10
60027;DHT22;45891;53.006;6.512;2023-05-27T15:20:15;28.90;67.90
60027;DHT22;45891;53.006;6.512;2023-05-27T15:22:42;28.70;66.80
60027;DHT22;45891;53.006;6.512;2023-05-27T15:25:09;28.20;67.20
60027;DHT22;45891;53.006;6.512;2023-05-27T15:27:35;28.40;67.30
60027;DHT22;45891;53.006;6.512;2023-05-27T15:30:05;28.70;67.70
60027;DHT22;45891;53.006;6.512;2023-05-27T15:32:31;29.00;67.50
60027;DHT22;45891;53.006;6.512;2023-05-27T15:34:58;28.80;68.60
60027;DHT22;45891;53.006;6.512;2023-05-27T15:37:24;29.10;68.70
60027;DHT22;45891;53.006;6.512;2023-05-27T15:39:50;29.10;68.20